Time;durP1;ratioP1;P1;durP2;ratioP2;P2;SDS_P1;SDS_P2;PMS_P1;PMS_P2;Temp;Humidity;BMP_temperature;BMP_pressure;BME280_temperature;BME280_humidity;BME280_pressure;Samples;Min_cycle;Max_cycle;Signal;HPM_P1;HPM_P2
2021/03/03 00:01:49;;;;;;;15.10;8.43;;;;;;;7.90;43.18;95871.63;5013316;28;20173;-73
2021/03/03 00:04:14;;;;;;;11.57;6.90;;;;;;;7.78;42.88;95884.69;5013243;28;20181;-70
2021/03/03 00:06:40;;;;;;;13.37;7.30;;;;;;;7.68;43.80;95886.50;5011996;28;20174;-74
2021/03/03 00:09:06;;;;;;;14.63;7.10;;;;;;;7.62;43.57;95892.22;5013238;28;20666;-69
2021/03/03 00:11:31;;;;;;;17.37;7.90;;;;;;;7.66;43.43;95883.34;5013032;28;20310;-69
2021/03/03 00:13:57;;;;;;;13.23;7.50;;;;;;;7.90;42.92;95876.94;5013065;28;20197;-70
2021/03/03 00:16:22;;;;;;;18.10;7.67;;;;;;;7.81;43.75;95886.75;5011842;28;20192;-69
2021/03/03 00:18:48;;;;;;;13.60;7.50;;;;;;;7.88;43.09;95884.44;5013053;28;20184;-69
2021/03/03 00:21:13;;;;;;;13.93;7.70;;;;;;;7.82;43.40;95880.34;5011870;28;20169;-69
2021/03/03 00:23:39;;;;;;;13.00;7.00;;;;;;;7.61;43.49;95872.84;5012856;28;20762;-69
2021/03/03 00:26:05;;;;;;;14.67;7.23;;;;;;;7.62;43.62;95876.28;5011807;28;20535;-69
2021/03/03 00:28:30;;;;;;;16.27;7.60;;;;;;;7.74;43.10;95878.41;5012610;28;20427;-74
2021/03/03 00:30:56;;;;;;;16.27;7.70;;;;;;;7.78;42.80;95884.69;5012717;28;20169;-70
2021/03/03 00:33:21;;;;;;;12.33;7.43;;;;;;;7.93;43.13;95885.13;5012465;28;20567;-69
2021/03/03 00:35:47;;;;;;;13.23;6.93;;;;;;;7.88;43.52;95887.13;5012856;28;20193;-69
2021/03/03 00:38:12;;;;;;;14.27;7.07;;;;;;;7.86;43.17;95881.31;5012756;28;20587;-73
2021/03/03 00:40:38;;;;;;;13.03;7.30;;;;;;;7.91;43.46;95874.00;5012397;28;20668;-73
2021/03/03 00:43:03;;;;;;;12.87;6.83;;;;;;;7.76;43.38;95890.31;5012732;28;20201;-72
2021/03/03 00:45:29;;;;;;;13.73;7.10;;;;;;;7.63;43.23;95878.66;5012166;28;20231;-69
2021/03/03 00:47:54;;;;;;;10.77;6.63;;;;;;;7.64;43.88;95871.47;5012118;28;20173;-71
2021/03/03 00:50:20;;;;;;;14.10;7.10;;;;;;;7.78;43.22;95863.41;5012202;28;20223;-70
2021/03/03 00:52:45;;;;;;;13.20;7.23;;;;;;;7.82;43.18;95862.53;5012211;28;20593;-70
2021/03/03 00:55:11;;;;;;;10.57;6.30;;;;;;;7.67;44.65;95866.31;5012324;28;20192;-70
2021/03/03 00:57:39;;;;;;;13.63;7.07;;;;;;;7.74;44.28;95857.13;5012408;28;20177;-69
2021/03/03 01:00:05;;;;;;;15.23;6.93;;;;;;;7.45;44.35;95863.66;5012083;28;20416;-69
2021/03/03 01:02:30;;;;;;;11.93;6.73;;;;;;;7.56;44.16;95872.97;5010493;28;20424;-69
2021/03/03 01:04:56;;;;;;;18.23;7.20;;;;;;;7.57;43.84;95866.56;5012260;28;20427;-69
2021/03/03 01:07:21;;;;;;;18.70;6.80;;;;;;;7.63;43.54;95877.84;5012023;28;20702;-69
2021/03/03 01:09:47;;;;;;;12.27;7.07;;;;;;;7.66;43.47;95871.94;5012344;28;20181;-69
2021/03/03 01:12:12;;;;;;;11.47;6.20;;;;;;;7.43;44.10;95858.63;5011894;28;20204;-69
2021/03/03 01:14:38;;;;;;;14.83;6.77;;;;;;;7.72;44.77;95877.94;5010801;28;20204;-69
2021/03/03 01:17:03;;;;;;;14.33;6.70;;;;;;;7.83;44.25;95865.97;5011758;28;20192;-70
2021/03/03 01:19:29;;;;;;;15.00;6.90;;;;;;;7.47;44.82;95861.50;5012055;28;20169;-69
2021/03/03 01:21:54;;;;;;;13.43;7.03;;;;;;;7.41;44.56;95868.78;5011802;28;20177;-69
2021/03/03 01:24:20;;;;;;;15.60;6.87;;;;;;;7.71;43.65;95860.41;5011959;28;20176;-73
2021/03/03 01:26:45;;;;;;;16.97;6.87;;;;;;;7.71;44.04;95871.03;5011951;28;20537;-69
2021/03/03 01:29:11;;;;;;;11.43;7.00;;;;;;;7.73;44.07;95877.63;5011708;28;20203;-69
2021/03/03 01:31:36;;;;;;;11.20;6.33;;;;;;;7.82;43.27;95885.66;5010681;28;20200;-69
2021/03/03 01:34:02;;;;;;;13.03;6.93;;;;;;;7.83;43.62;95876.59;5011549;28;20212;-69
2021/03/03 01:36:28;;;;;;;11.53;6.53;;;;;;;7.86;44.11;95876.00;5011762;28;20256;-69
2021/03/03 01:38:53;;;;;;;12.40;6.47;;;;;;;7.84;44.16;95875.50;5010308;28;20644;-69
2021/03/03 01:41:19;;;;;;;12.87;7.03;;;;;;;7.89;43.81;95878.81;5011789;28;20169;-69
2021/03/03 01:43:44;;;;;;;16.57;6.17;;;;;;;7.83;44.37;95880.03;5010389;28;20180;-70
2021/03/03 01:46:10;;;;;;;14.00;6.33;;;;;;;7.86;43.89;95884.75;5011672;28;20671;-71
2021/03/03 01:48:36;;;;;;;14.93;6.77;;;;;;;7.84;44.09;95881.59;5011354;28;20184;-69
2021/03/03 01:51:01;;;;;;;17.13;7.17;;;;;;;7.60;44.92;95881.91;5010329;28;20216;-69
2021/03/03 01:53:29;;;;;;;14.40;7.03;;;;;;;7.56;44.68;95878.28;5011661;28;20207;-71
2021/03/03 01:55:54;;;;;;;13.87;8.33;;;;;;;7.36;45.18;95876.09;5011395;28;20663;-69
2021/03/03 01:58:20;;;;;;;17.13;7.20;;;;;;;7.44;45.05;95880.69;5011736;28;20416;-68
2021/03/03 02:00:45;;;;;;;13.20;6.67;;;;;;;7.40;44.83;95879.69;5015407;28;20177;-69
2021/03/03 02:03:11;;;;;;;16.13;7.40;;;;;;;7.40;45.12;95877.03;5015431;28;20169;-69
2021/03/03 02:05:36;;;;;;;13.30;6.77;;;;;;;7.62;45.04;95876.28;5015601;28;20177;-69
2021/03/03 02:08:05;;;;;;;15.37;7.60;;;;;;;7.45;45.43;95866.31;5014125;28;20668;-69
2021/03/03 02:10:44;;;;;;;15.10;7.10;;;;;;;7.59;45.41;95875.03;5015260;28;20181;-69
2021/03/03 02:13:22;;;;;;;15.33;7.33;;;;;;;7.64;45.45;95871.47;4997834;28;20471;-71
2021/03/03 02:15:48;;;;;;;12.73;6.13;;;;;;;7.65;44.89;95881.00;4997765;28;20416;-69
2021/03/03 02:18:13;;;;;;;13.33;6.60;;;;;;;7.32;45.57;95880.44;4997924;28;20518;-70
2021/03/03 02:20:56;;;;;;;20.60;6.87;;;;;;;7.50;45.55;95884.78;5013926;28;20196;-72
2021/03/03 02:23:55;;;;;;;16.60;6.97;;;;;;;7.55;46.25;95899.84;4999238;28;20261;-69
2021/03/03 02:26:22;;;;;;;12.80;7.07;;;;;;;7.39;45.94;95900.19;5014992;28;20942;-70
2021/03/03 02:28:47;;;;;;;15.87;7.87;;;;;;;7.22;46.37;95904.53;5013769;28;20515;-69
2021/03/03 02:31:14;;;;;;;13.43;7.57;;;;;;;7.30;46.09;95894.03;4997595;28;20412;-70
2021/03/03 02:33:41;;;;;;;12.63;7.20;;;;;;;7.33;46.04;95895.28;5015031;28;20204;-69
2021/03/03 02:36:06;;;;;;;15.90;7.87;;;;;;;7.28;46.31;95895.38;5013549;28;20428;-69
2021/03/03 02:38:32;;;;;;;13.03;7.63;;;;;;;7.36;45.92;95905.31;5014939;28;20446;-69
2021/03/03 02:40:57;;;;;;;13.57;7.33;;;;;;;6.99;47.56;95907.13;4997086;28;20172;-69
2021/03/03 02:43:23;;;;;;;15.43;7.57;;;;;;;7.05;46.95;95911.25;4996813;28;20280;-72
2021/03/03 02:45:49;;;;;;;12.50;7.70;;;;;;;6.77;47.65;95910.50;5013489;28;20231;-73
2021/03/03 02:48:15;;;;;;;16.33;7.07;;;;;;;7.14;46.94;95909.50;5014896;28;20185;-73
2021/03/03 02:50:41;;;;;;;20.63;7.97;;;;;;;7.22;46.88;95901.91;5014245;28;20189;-73
2021/03/03 02:53:07;;;;;;;15.30;8.10;;;;;;;7.29;46.72;95910.22;5013411;28;20470;-70
2021/03/03 02:55:33;;;;;;;13.50;7.87;;;;;;;7.34;46.20;95910.13;5013226;28;20218;-73
2021/03/03 02:57:59;;;;;;;17.43;6.70;;;;;;;6.93;47.79;95903.00;5013276;28;20503;-69
2021/03/03 03:00:32;;;;;;;17.43;7.80;;;;;;;7.04;47.62;95903.59;5013512;28;20181;-69
2021/03/03 03:03:19;;;;;;;18.37;8.17;;;;;;;7.09;47.97;95911.47;5012888;28;20431;-73
2021/03/03 03:05:48;;;;;;;15.80;7.87;;;;;;;7.07;47.59;95908.28;5012917;28;20823;-69
2021/03/03 03:08:15;;;;;;;17.30;7.83;;;;;;;6.98;48.16;95908.22;5011880;28;20428;-69
2021/03/03 03:10:41;;;;;;;18.77;8.43;;;;;;;7.05;47.84;95913.13;4994406;28;20857;-71
2021/03/03 03:13:07;;;;;;;16.80;8.47;;;;;;;7.24;48.26;95902.38;5013138;28;20482;-73
2021/03/03 03:15:33;;;;;;;17.57;8.90;;;;;;;7.25;47.71;95909.28;5011783;28;20717;-70
2021/03/03 03:18:01;;;;;;;19.50;10.27;;;;;;;7.36;46.90;95910.63;5013048;28;20420;-71
2021/03/03 03:20:28;;;;;;;21.40;9.43;;;;;;;7.43;47.39;95918.97;5011756;28;20177;-69
2021/03/03 03:22:53;;;;;;;16.63;8.87;;;;;;;7.46;47.58;95917.56;5011513;28;20431;-72
2021/03/03 03:25:19;;;;;;;22.57;9.97;;;;;;;7.49;46.64;95919.66;5011605;28;20416;-71
2021/03/03 03:27:45;;;;;;;21.53;10.97;;;;;;;7.44;46.08;95923.19;4995263;28;20219;-71
2021/03/03 03:30:13;;;;;;;25.33;11.63;;;;;;;7.25;46.26;95925.22;5010375;28;20221;-72
2021/03/03 03:32:40;;;;;;;24.93;13.37;;;;;;;7.04;46.71;95930.94;5011242;28;20181;-72
2021/03/03 03:35:06;;;;;;;24.90;11.50;;;;;;;6.74;47.83;95928.88;5012913;28;20543;-73
2021/03/03 03:37:31;;;;;;;23.93;13.03;;;;;;;6.49;48.82;95933.56;5010862;28;20459;-73
2021/03/03 03:39:57;;;;;;;26.37;12.80;;;;;;;6.55;48.26;95934.25;5012678;28;20849;-73
2021/03/03 03:42:23;;;;;;;30.27;12.33;;;;;;;6.64;47.51;95935.16;5012520;28;20204;-70
2021/03/03 03:44:49;;;;;;;23.60;11.63;;;;;;;6.54;47.45;95928.19;5011755;28;20169;-69
2021/03/03 03:47:15;;;;;;;22.73;12.23;;;;;;;6.56;47.86;95933.97;5011701;28;20953;-69
2021/03/03 03:49:42;;;;;;;25.50;12.27;;;;;;;6.61;47.91;95935.75;5012540;28;20611;-69
2021/03/03 03:52:07;;;;;;;19.93;12.17;;;;;;;6.57;47.57;95937.44;4986559;28;718103;-69
2021/03/03 03:54:33;;;;;;;22.70;11.97;;;;;;;6.50;47.93;95929.84;5011912;28;20472;-69
2021/03/03 03:56:58;;;;;;;26.33;11.53;;;;;;;6.32;49.39;95928.81;5013514;28;20208;-68
2021/03/03 03:59:24;;;;;;;24.90;12.50;;;;;;;6.23;49.80;95919.16;5013248;28;20177;-69
2021/03/03 04:01:49;;;;;;;21.67;11.60;;;;;;;6.20;49.40;95901.19;5013331;28;20627;-69
2021/03/03 04:04:14;;;;;;;22.93;11.53;;;;;;;6.18;49.86;95922.72;5013049;28;20177;-69
2021/03/03 04:06:40;;;;;;;24.20;11.80;;;;;;;6.26;49.92;95932.66;5013286;28;20648;-74
2021/03/03 04:09:05;;;;;;;25.77;11.80;;;;;;;6.03;49.91;95921.09;5013083;28;20169;-69
2021/03/03 04:11:31;;;;;;;22.97;11.93;;;;;;;5.98;50.08;95931.00;5013168;28;20157;-74
2021/03/03 04:13:56;;;;;;;26.30;11.63;;;;;;;5.92;50.06;95935.59;5013267;28;20220;-68
2021/03/03 04:16:22;;;;;;;26.30;12.07;;;;;;;5.88;50.47;95920.53;5012893;28;20644;-73
2021/03/03 04:18:47;;;;;;;25.43;12.00;;;;;;;5.99;50.28;95937.88;5013073;28;20205;-69
2021/03/03 04:21:13;;;;;;;23.60;12.87;;;;;;;5.99;51.14;95945.81;5012044;28;20177;-69
2021/03/03 04:23:39;;;;;;;22.73;12.15;;;;;;;5.85;50.67;95937.81;5012971;28;20181;-71
2021/03/03 04:26:04;;;;;;;22.00;11.57;;;;;;;5.68;51.10;95938.31;5012656;28;20264;-72
2021/03/03 04:28:30;;;;;;;25.03;13.40;;;;;;;5.76;50.84;95945.59;5012869;28;20169;-73
2021/03/03 04:30:55;;;;;;;22.30;12.13;;;;;;;5.77;50.72;95951.69;5012734;28;20204;-70
2021/03/03 04:33:21;;;;;;;21.33;10.57;;;;;;;5.98;48.92;95953.00;5012676;28;20572;-73
2021/03/03 04:35:46;;;;;;;21.27;10.10;;;;;;;6.01;48.22;95952.44;5012810;28;20235;-69
2021/03/03 04:38:12;;;;;;;28.40;10.77;;;;;;;6.13;48.34;95956.50;5012509;28;20187;-73
2021/03/03 04:40:37;;;;;;;19.90;9.67;;;;;;;6.00;49.21;95958.78;5012519;28;20585;-69
2021/03/03 04:43:03;;;;;;;25.33;10.47;;;;;;;5.91;50.20;95954.41;5012462;28;20173;-73
2021/03/03 04:45:29;;;;;;;19.13;10.77;;;;;;;5.88;50.39;95952.31;5012589;28;20176;-68
2021/03/03 04:47:54;;;;;;;18.30;10.97;;;;;;;5.96;50.62;95951.72;5012289;28;20170;-69
2021/03/03 04:50:20;;;;;;;19.60;10.70;;;;;;;5.91;50.13;95949.94;5011254;28;20200;-69
2021/03/03 04:52:45;;;;;;;22.97;10.37;;;;;;;5.79;50.80;95949.56;5011996;28;20217;-69
2021/03/03 04:55:11;;;;;;;24.33;10.27;;;;;;;5.77;50.72;95965.72;5012356;28;20177;-69
2021/03/03 04:57:36;;;;;;;22.17;11.63;;;;;;;5.27;51.12;95948.66;5012207;28;20189;-69
2021/03/03 05:00:03;;;;;;;27.50;11.17;;;;;;;5.17;52.42;95960.19;5012193;28;20202;-69
2021/03/03 05:02:29;;;;;;;23.30;11.27;;;;;;;5.19;52.02;95954.63;5012458;28;20180;-69
2021/03/03 05:04:54;;;;;;;23.00;10.97;;;;;;;5.25;52.75;95948.97;5012059;28;20419;-70
2021/03/03 05:07:20;;;;;;;20.13;11.30;;;;;;;5.30;54.27;95953.41;5011063;28;20184;-69
2021/03/03 05:09:45;;;;;;;18.00;10.20;;;;;;;5.40;53.19;95958.59;5011911;28;20204;-68
2021/03/03 05:12:11;;;;;;;20.70;9.83;;;;;;;5.45;52.36;95960.38;5012009;28;20173;-68
2021/03/03 05:14:36;;;;;;;20.77;9.83;;;;;;;5.68;53.19;95966.69;5011966;28;20216;-70
2021/03/03 05:17:02;;;;;;;20.73;10.73;;;;;;;5.73;52.58;95974.56;5012051;28;20173;-71
2021/03/03 05:19:28;;;;;;;23.20;10.70;;;;;;;5.79;52.01;95970.75;5011734;28;20192;-73
2021/03/03 05:21:53;;;;;;;20.87;10.93;;;;;;;5.79;53.08;95965.47;5012064;28;20209;-71
2021/03/03 05:24:19;;;;;;;26.77;11.03;;;;;;;5.87;52.35;95964.78;5011963;28;20231;-70
2021/03/03 05:26:44;;;;;;;22.27;10.13;;;;;;;5.44;53.79;95956.91;5010421;28;20185;-69
2021/03/03 05:29:10;;;;;;;20.57;10.67;;;;;;;5.58;53.77;95962.31;5011806;28;20189;-71
2021/03/03 05:31:35;;;;;;;18.33;10.37;;;;;;;5.69;53.50;95958.44;5011856;28;20272;-70
2021/03/03 05:34:01;;;;;;;18.70;9.90;;;;;;;6.05;53.63;95961.34;5010057;28;20711;-72
2021/03/03 05:36:26;;;;;;;20.67;9.93;;;;;;;5.93;53.73;95949.63;5011521;28;20189;-71
2021/03/03 05:38:52;;;;;;;24.87;10.90;;;;;;;6.00;54.59;95965.94;5011679;28;20254;-69
2021/03/03 05:41:22;;;;;;;24.47;10.13;;;;;;;5.71;54.94;95961.56;5010520;28;20200;-73
2021/03/03 05:43:48;;;;;;;21.40;10.25;;;;;;;5.82;55.19;95960.34;5009562;28;20161;-72
2021/03/03 05:46:13;;;;;;;25.37;11.63;;;;;;;6.00;55.26;95953.47;5008423;28;20181;-72
2021/03/03 05:48:43;;;;;;;22.07;11.27;;;;;;;6.22;54.88;95957.38;5009276;28;20176;-73
2021/03/03 05:51:09;;;;;;;20.80;11.33;;;;;;;6.28;55.27;95961.53;5010037;28;20217;-71
2021/03/03 05:53:35;;;;;;;18.67;10.73;;;;;;;6.51;54.05;95960.63;5009856;28;20474;-71
2021/03/03 05:56:02;;;;;;;23.93;10.37;;;;;;;6.46;54.32;95958.06;5010307;28;20173;-75
2021/03/03 05:58:29;;;;;;;25.33;10.80;;;;;;;6.56;54.44;95949.09;5010213;28;20172;-70
2021/03/03 06:00:58;;;;;;;22.07;10.57;;;;;;;6.86;53.83;95961.03;5011397;28;20470;-72
2021/03/03 06:03:24;;;;;;;21.97;10.50;;;;;;;6.83;54.26;95961.63;5011322;28;20420;-71
2021/03/03 06:05:50;;;;;;;27.27;10.63;;;;;;;6.70;53.73;95949.13;5011460;28;20443;-73
2021/03/03 06:08:16;;;;;;;22.27;10.87;;;;;;;6.79;53.59;95957.97;5009642;28;20432;-70
2021/03/03 06:10:42;;;;;;;28.17;11.03;;;;;;;6.86;53.94;95956.50;5011388;28;20655;-69
2021/03/03 06:13:07;;;;;;;22.27;10.83;;;;;;;7.02;53.10;95956.22;5010863;28;20463;-70
2021/03/03 06:15:33;;;;;;;22.80;11.20;;;;;;;7.05;53.37;95958.28;5010183;28;20201;-73
2021/03/03 06:17:58;;;;;;;25.57;11.43;;;;;;;7.12;52.92;95962.09;5011117;28;20256;-72
2021/03/03 06:20:24;;;;;;;24.00;13.00;;;;;;;7.16;52.74;95963.09;5011257;28;20174;-73
2021/03/03 06:22:50;;;;;;;22.90;11.20;;;;;;;7.23;53.13;95965.34;5010338;28;20173;-70
2021/03/03 06:25:22;;;;;;;23.63;10.10;;;;;;;7.21;52.63;95966.75;5010945;28;20462;-73
2021/03/03 06:27:48;;;;;;;19.90;10.47;;;;;;;7.26;52.39;95961.31;5010012;28;20597;-72
2021/03/03 06:30:16;;;;;;;23.53;11.40;;;;;;;7.26;52.32;95962.09;5009983;28;20416;-72
2021/03/03 06:33:01;;;;;;;22.50;10.77;;;;;;;7.36;52.29;95969.88;5011165;28;20224;-72
2021/03/03 06:35:44;;;;;;;23.27;10.53;;;;;;;7.52;51.78;95970.34;5011147;28;20435;-69
2021/03/03 06:38:13;;;;;;;26.93;11.43;;;;;;;7.51;51.48;95968.75;5010939;28;20891;-72
2021/03/03 06:40:57;;;;;;;25.93;12.57;;;;;;;7.46;51.85;95973.38;5011207;28;20428;-73
2021/03/03 06:43:26;;;;;;;25.43;11.93;;;;;;;7.57;51.93;95967.56;5009730;28;20942;-72
2021/03/03 06:45:53;;;;;;;32.03;13.83;;;;;;;7.58;51.57;95977.13;5013394;28;20962;-69
2021/03/03 06:48:40;;;;;;;25.30;13.00;;;;;;;7.77;50.92;95973.53;5014535;28;20507;-69
2021/03/03 06:51:28;;;;;;;21.53;11.37;;;;;;;7.69;51.38;95978.47;5014298;28;20478;-70
2021/03/03 06:53:58;;;;;;;28.10;13.37;;;;;;;7.73;51.94;95973.31;5013480;28;20499;-72
2021/03/03 06:56:41;;;;;;;22.37;12.33;;;;;;;8.10;50.72;95974.88;5014739;28;20424;-73
2021/03/03 06:59:28;;;;;;;23.40;12.13;;;;;;;8.07;50.78;95980.00;5014645;28;20423;-70
2021/03/03 07:01:57;;;;;;;23.97;12.43;;;;;;;8.16;50.25;95984.31;5014292;28;20514;-73
2021/03/03 07:04:24;;;;;;;23.13;11.07;;;;;;;8.19;50.31;95973.09;5013361;28;20467;-71
2021/03/03 07:06:50;;;;;;;24.63;11.07;;;;;;;8.28;49.91;95985.66;5014186;28;20435;-72
2021/03/03 07:09:16;;;;;;;21.53;11.10;;;;;;;8.35;49.60;95980.69;5014416;28;20439;-72
2021/03/03 07:11:42;;;;;;;23.90;11.53;;;;;;;8.38;49.28;95978.22;5014064;28;20428;-69
2021/03/03 07:14:20;;;;;;;22.50;11.67;;;;;;;8.39;49.06;95976.34;5014089;28;20201;-70
2021/03/03 07:17:06;;;;;;;24.00;11.00;;;;;;;8.49;49.15;95970.78;5014061;28;20173;-69
2021/03/03 07:19:32;;;;;;;21.50;10.50;;;;;;;8.47;49.73;95973.75;5012931;28;20507;-69
2021/03/03 07:21:58;;;;;;;23.37;10.93;;;;;;;8.27;49.47;95941.50;5013683;28;20424;-69
2021/03/03 07:24:24;;;;;;;21.80;11.13;;;;;;;8.73;49.25;95965.09;5012830;28;20424;-71
2021/03/03 07:26:49;;;;;;;24.10;11.53;;;;;;;8.77;48.77;95965.28;5013898;28;20181;-72
2021/03/03 07:29:15;;;;;;;23.57;10.50;;;;;;;8.91;49.36;95969.41;5014056;28;20235;-69
2021/03/03 07:31:40;;;;;;;19.40;11.47;;;;;;;8.88;48.42;95958.59;5012603;28;20173;-71
2021/03/03 07:34:06;;;;;;;19.23;10.27;;;;;;;8.97;48.77;95968.19;5012661;28;20710;-69
2021/03/03 07:36:35;;;;;;;20.20;10.57;;;;;;;8.97;48.77;95965.50;5012401;28;20264;-72
2021/03/03 07:39:08;;;;;;;23.77;11.00;;;;;;;9.10;48.57;95953.19;5008428;28;20474;-69
2021/03/03 07:41:44;;;;;;;21.00;10.67;;;;;;;9.34;47.89;95954.66;5010991;28;20427;-67
2021/03/03 07:44:20;;;;;;;20.57;11.47;;;;;;;11.27;73.29;95959.09;5012229;28;20428;-71
2021/03/03 07:46:48;;;;;;;24.20;10.70;;;;;;;11.22;45.05;95951.25;5011512;28;20424;-73
2021/03/03 07:49:17;;;;;;;23.23;10.97;;;;;;;10.60;44.52;95944.59;5012719;28;20420;-78
2021/03/03 07:51:43;;;;;;;24.07;12.03;;;;;;;10.45;45.88;95955.00;4996145;28;20470;-75
2021/03/03 07:54:12;;;;;;;19.47;11.00;;;;;;;10.25;45.57;95954.56;4996198;28;20460;-77
2021/03/03 07:56:38;;;;;;;24.53;11.93;;;;;;;10.08;46.52;95951.88;5012412;28;20172;-79
2021/03/03 07:59:05;;;;;;;23.67;11.80;;;;;;;10.13;46.13;95937.59;4996047;28;20428;-74
2021/03/03 08:01:31;;;;;;;22.90;10.43;;;;;;;10.20;46.34;95945.91;4996172;28;20173;-74
2021/03/03 08:03:56;;;;;;;26.43;12.00;;;;;;;10.23;46.44;95959.44;4995569;28;20996;-76
2021/03/03 08:06:23;;;;;;;22.67;11.20;;;;;;;10.28;46.39;95953.94;5012208;28;20168;-78
2021/03/03 08:09:07;;;;;;;21.60;11.33;;;;;;;10.23;45.80;95958.63;5013115;28;20296;-78
2021/03/03 08:11:41;;;;;;;27.43;11.83;;;;;;;10.08;47.02;95950.00;5013263;28;20459;-77
2021/03/03 08:14:35;;;;;;;23.40;11.73;;;;;;;10.31;45.78;95958.63;5012821;28;20470;-77
2021/03/03 08:17:03;;;;;;;25.70;12.40;;;;;;;10.39;47.36;95966.97;5012726;28;20424;-79
2021/03/03 08:19:47;;;;;;;19.67;10.73;;;;;;;10.62;45.64;95954.97;5013206;28;20475;-78
2021/03/03 08:22:12;;;;;;;26.10;11.20;;;;;;;10.65;45.67;95950.88;5011640;28;20424;-77
2021/03/03 08:24:38;;;;;;;29.13;12.40;;;;;;;10.77;46.01;95946.41;5011227;28;20449;-77
2021/03/03 08:27:31;;;;;;;25.60;11.77;;;;;;;10.90;45.34;95947.34;5011469;28;20227;-74
2021/03/03 08:30:10;;;;;;;20.27;10.87;;;;;;;11.17;45.53;95943.44;5007356;28;20231;-78
2021/03/03 08:32:35;;;;;;;22.67;12.03;;;;;;;11.30;44.66;95939.75;5009783;28;20432;-78
2021/03/03 08:35:01;;;;;;;26.23;11.60;;;;;;;11.23;43.65;95942.16;5011334;28;20470;-79
2021/03/03 08:37:28;;;;;;;20.13;10.47;;;;;;;11.30;44.48;95941.63;5000658;28;20177;-77
2021/03/03 08:39:54;;;;;;;20.47;11.37;;;;;;;11.26;43.49;95944.16;5009473;28;20208;-73
2021/03/03 08:42:27;;;;;;;29.93;10.80;;;;;;;11.25;43.95;95926.56;5011710;28;20419;-78
2021/03/03 08:44:59;;;;;;;23.00;11.27;;;;;;;11.40;43.62;95930.56;5012485;28;20666;-75
2021/03/03 08:47:53;;;;;;;26.57;12.33;;;;;;;11.31;43.43;95922.59;5006468;28;20818;-74
2021/03/03 08:50:31;;;;;;;26.60;12.30;;;;;;;11.42;45.04;95924.88;5012152;28;20407;-80
2021/03/03 08:53:18;;;;;;;21.47;11.60;;;;;;;11.25;43.84;95929.22;5011723;28;20475;-79
2021/03/03 08:55:44;;;;;;;21.93;11.63;;;;;;;11.33;43.27;95923.03;5012170;28;20408;-77
2021/03/03 08:58:48;;;;;;;24.53;11.03;;;;;;;11.45;43.29;95924.22;5012008;28;20423;-74
2021/03/03 09:01:14;;;;;;;24.17;10.67;;;;;;;11.93;62.64;95925.66;4932422;29;20555;-71
2021/03/03 09:03:39;;;;;;;19.40;10.90;;;;;;;12.88;51.92;95922.78;4916504;29;20438;-68
2021/03/03 09:06:05;;;;;;;26.37;10.93;;;;;;;12.42;42.28;95927.38;4916979;29;20219;-80
2021/03/03 09:08:30;;;;;;;24.43;11.43;;;;;;;12.30;42.12;95919.31;4900266;29;20183;-81
2021/03/03 09:10:56;;;;;;;20.73;11.10;;;;;;;12.43;40.71;95912.88;4916572;29;20247;-70
2021/03/03 09:13:25;;;;;;;24.23;11.40;;;;;;;12.09;41.52;95924.72;4931855;29;20219;-80
2021/03/03 09:16:03;;;;;;;20.10;11.07;;;;;;;12.06;41.45;95908.50;4913029;29;20676;-73
2021/03/03 09:18:28;;;;;;;22.47;11.07;;;;;;;12.31;40.85;95925.47;4918288;29;20578;-81
2021/03/03 09:21:12;;;;;;;21.17;10.20;;;;;;;12.08;40.86;95928.50;4916414;29;20979;-79
2021/03/03 09:23:38;;;;;;;24.47;11.27;;;;;;;11.97;42.26;95923.88;4950539;29;20298;-79
2021/03/03 09:26:22;;;;;;;20.23;10.00;;;;;;;11.91;43.61;95918.72;4927449;29;20447;-70
2021/03/03 09:28:47;;;;;;;22.53;10.63;;;;;;;11.79;41.86;95915.97;4932201;29;20268;-76
2021/03/03 09:31:32;;;;;;;23.20;10.40;;;;;;;11.91;42.77;95924.09;4932454;29;21058;-70
2021/03/03 09:33:58;;;;;;;21.77;11.43;;;;;;;12.18;42.42;95912.03;4932191;29;20718;-76
2021/03/03 09:36:24;;;;;;;23.20;11.73;;;;;;;12.51;40.66;95915.78;4933879;28;20451;-75
2021/03/03 09:38:54;;;;;;;20.27;10.83;;;;;;;12.79;40.93;95906.00;5011459;28;20199;-75
2021/03/03 09:41:20;;;;;;;19.57;10.07;;;;;;;13.32;56.98;95908.84;5011837;28;20644;-69
2021/03/03 09:44:01;;;;;;;18.83;9.60;;;;;;;13.64;38.09;95910.59;5011960;28;20416;-71
2021/03/03 09:46:27;;;;;;;20.37;10.63;;;;;;;13.40;38.38;95911.38;5010655;28;20245;-70
2021/03/03 09:48:53;;;;;;;21.30;9.93;;;;;;;13.21;37.89;95906.63;5011452;28;20419;-70
2021/03/03 09:51:18;;;;;;;19.87;9.90;;;;;;;13.33;39.09;95897.00;5010399;28;20225;-71
2021/03/03 09:53:56;;;;;;;17.63;8.37;;;;;;;13.64;38.50;95899.84;5011581;28;20679;-70
2021/03/03 09:56:31;;;;;;;20.33;9.87;;;;;;;13.91;36.87;95895.59;5011725;28;20175;-72
2021/03/03 09:58:57;;;;;;;18.67;11.20;;;;;;;13.76;38.19;95882.91;5011398;28;20420;-71
2021/03/03 10:01:24;;;;;;;18.80;10.10;;;;;;;13.76;36.73;95899.03;5010387;28;20442;-71
2021/03/03 10:03:49;;;;;;;22.53;10.40;;;;;;;13.88;38.18;95887.47;4994040;28;20430;-70
2021/03/03 10:06:15;;;;;;;19.30;9.47;;;;;;;14.11;36.58;95882.34;5011197;28;20420;-70
2021/03/03 10:08:40;;;;;;;15.37;9.30;;;;;;;14.30;35.85;95882.44;4994105;28;20173;-71
2021/03/03 10:11:06;;;;;;;19.60;9.63;;;;;;;14.33;35.51;95883.69;4993790;28;20169;-71
2021/03/03 10:13:39;;;;;;;19.47;9.23;;;;;;;14.34;37.07;95877.19;5011574;28;20251;-72
2021/03/03 10:16:14;;;;;;;16.10;8.83;;;;;;;14.37;36.16;95874.59;5010081;28;20173;-70
2021/03/03 10:18:39;;;;;;;20.80;10.53;;;;;;;14.67;35.45;95864.22;5011397;28;20493;-69
2021/03/03 10:21:05;;;;;;;19.80;8.70;;;;;;;14.69;35.18;95861.19;5013836;28;20427;-72
2021/03/03 10:23:33;;;;;;;16.43;9.10;;;;;;;14.72;34.74;95863.97;5015350;28;20260;-70
2021/03/03 10:26:04;;;;;;;17.40;8.77;;;;;;;14.92;34.19;95853.28;4997461;28;20176;-70
2021/03/03 10:28:30;;;;;;;18.07;8.50;;;;;;;15.00;33.64;95844.25;5015159;28;20408;-70
2021/03/03 10:31:01;;;;;;;16.37;9.40;;;;;;;14.99;33.86;95840.78;5014861;28;20431;-72
2021/03/03 10:33:34;;;;;;;13.97;7.57;;;;;;;15.27;33.39;95831.81;5013641;28;20692;-71
2021/03/03 10:36:04;;;;;;;18.07;8.73;;;;;;;15.26;32.86;95825.66;5015008;28;20430;-71
2021/03/03 10:38:29;;;;;;;14.43;8.53;;;;;;;15.26;32.62;95831.03;5013359;28;20957;-70
2021/03/03 10:40:56;;;;;;;16.53;8.63;;;;;;;15.24;31.94;95821.72;5011448;28;20440;-69
2021/03/03 10:43:23;;;;;;;16.00;7.77;;;;;;;15.55;31.17;95818.94;5012287;28;20323;-71
2021/03/03 10:46:06;;;;;;;15.87;7.93;;;;;;;15.63;31.77;95821.78;5013183;28;20424;-70
2021/03/03 10:48:32;;;;;;;19.97;9.83;;;;;;;15.46;31.25;95810.28;4994966;28;20919;-70
2021/03/03 10:51:02;;;;;;;14.03;7.33;;;;;;;15.55;31.78;95799.31;4994553;28;20445;-70
2021/03/03 10:53:46;;;;;;;14.67;7.30;;;;;;;15.35;30.30;95806.59;4995152;28;20623;-70
2021/03/03 10:56:39;;;;;;;14.40;7.33;;;;;;;15.50;29.80;95794.22;4994957;28;20424;-72
2021/03/03 10:59:06;;;;;;;14.47;7.90;;;;;;;15.70;30.51;95787.69;4991472;28;20433;-69
2021/03/03 11:01:46;;;;;;;13.93;7.43;;;;;;;16.06;29.41;95786.47;4995062;28;20861;-70
2021/03/03 11:04:11;;;;;;;21.17;7.10;;;;;;;15.75;28.75;95783.94;4994575;28;20437;-70
2021/03/03 11:06:37;;;;;;;12.00;6.40;;;;;;;15.44;29.58;95779.47;4994702;28;20420;-70
2021/03/03 11:09:07;;;;;;;13.87;7.20;;;;;;;15.72;30.19;95782.75;4994568;28;20181;-70
2021/03/03 11:11:33;;;;;;;14.87;7.50;;;;;;;16.14;29.17;95771.19;5009371;28;20664;-70
2021/03/03 11:13:58;;;;;;;13.13;7.50;;;;;;;16.29;29.52;95770.31;4994474;28;20499;-71
2021/03/03 11:16:24;;;;;;;15.93;7.67;;;;;;;16.62;29.13;95756.19;4994357;28;20170;-70
2021/03/03 11:18:50;;;;;;;18.67;8.97;;;;;;;16.89;29.92;95764.28;4993494;28;20598;-70
2021/03/03 11:21:15;;;;;;;31.03;8.93;;;;;;;16.92;28.42;95766.28;4992683;28;20190;-70
2021/03/03 11:23:41;;;;;;;13.23;7.30;;;;;;;16.71;28.30;95752.47;4994323;28;20240;-70
2021/03/03 11:26:06;;;;;;;13.93;5.97;;;;;;;16.74;28.69;95751.78;4994223;28;20178;-70
2021/03/03 11:28:32;;;;;;;16.67;8.43;;;;;;;16.87;28.21;95753.88;4994336;28;20660;-70
2021/03/03 11:30:57;;;;;;;16.93;8.33;;;;;;;16.87;29.31;95751.19;4992673;28;20185;-70
2021/03/03 11:33:23;;;;;;;17.17;7.73;;;;;;;17.23;30.40;95751.69;4993900;28;20198;-75